默认 日期 大小 文件数 浏览量 最新下载 xml
25.3.磁力链接相关资源由用户搜索指令自动获取,结果来源于网络,本站不存储任何资料,亦不承担任何责任,请于24小时内删除,搜索到8536个磁力,显示前4000条数据,用时44ms。
    {"Manon Martin, 25 ans - 3 vidéos Dorcel + J&M": {"( ... .mp4": 1070159116, "Manon Martin, 25 ans - 3 vidéos Dorcel + J&M ...
创建时间: 2019-02-14 02:19:23 大小:1.98 GB 文件数量:4 热度:24 最近下载:2025-08-11 14:44:01
    {"Chief Architect Premier 17.3.3.25 (x64).exe": 8863884}
创建时间: 2019-02-14 02:20:49 大小:8.45 MB 文件数量:1 热度:6 最近下载:2024-12-29 02:33:02
    ... Professional Edition.cmd": 33}, "CCleaner-3.25.18.72.exe": 3007719}
创建时间: 2019-02-14 04:48:20 大小:2.87 MB 文件数量:5 热度:9 最近下载:2025-05-20 00:53:03
    ... "Upload Info 02.jpg": 31666, "25 lat Listy Przebojow Trojki.txt ... ": 5462, "[1992] 25 lat Listy Przebojów Tr ... Bartosiewicz - Jedwab.mp3": 15116693}, "[1993] 25 lat Listy Przebojów Tr ... Twoja Nadzieja.mp3": 11767051}, "[1994] 25 lat Listy Przebojów Tr ...
创建时间: 2019-02-14 06:41:42 大小:728 MB 文件数量:89 热度:5 最近下载:2024-09-04 03:26:02
    {"crack": {"run_c4a89.exe": 233334}, "Keys.pdf": 6580, "www.FENOPY.se.jpg": 121448, "Warcraft 4 + Frozen Throne 3.25.exe": 21490102, "Warcraft 4 + Frozen Throne 3.25.nfo": 260, "Torrent downloaded from 1337x.org.txt": 64}
创建时间: 2019-02-14 07:07:40 大小:20.84 MB 文件数量:6 热度:5 最近下载:2025-03-02 23:43:02
    {"RARBG.txt": 30, "Nubiles-Porn.17.05.25.Kristen.Scott.And.Sierra.Nicole.Snow.Bunnies.3.XXX.SD.MP4-RARBG.mp4": 272796827, "Nubiles-Porn.17.05.25.Kristen.Scott.And.Sierra.Nicole.Snow.Bunnies.3.XXX.SD.MP4-RARBG.nfo": 3784}
创建时间: 2019-02-14 07:40:50 大小:260.16 MB 文件数量:3 热度:12 最近下载:2025-09-21 17:46:03
    {"Readme.txt": 308, "WWW.YIFY-TORRENTS.COM.jpg": 130208, "Adobe Acrobat Pro DC 2018.8.3.25.20092 + Crack.exe": 24093722, "Adobe Acrobat Pro DC 2018.8.3.25.20092 + Crack.nfo": 488, "Torrent downloaded from TorReviver torrents at BTS.to.txt": 80}
创建时间: 2019-02-14 09:45:02 大小:23.1 MB 文件数量:5 热度:14 最近下载:2025-05-16 04:09:01
    {"Readme!!.txt": 1364, "GOM Player Plus v4.3.25.5282 Final + Patch.exe": 12858614}
创建时间: 2019-02-14 12:40:01 大小:12.26 MB 文件数量:2 热度:7 最近下载:2025-04-18 13:20:01
    {"Patch.zip": 1271830, "YouTubeDownloader.exe": 31268957, "Visit SnowFiles.com.url": 110, "Visit CracksMind.com.url": 113, "Downloaded from CracksMind.Com.txt": 2178, "Visit TutsGalaxy.com for tutorials & free courses.url": 113}
创建时间: 2019-02-14 15:20:16 大小:31.04 MB 文件数量:6 热度:5 最近下载:2025-05-05 10:14:02
    {"1.jpg": 149047, "2.jpg": 3095945, "新幹線.mht": 495, "上門服務.mht": 479, "RED198.640x480.mp4": 1658529527, "柏拉圖秘密花園.mht": 479, "论坛 限量开放中。。.mht": 479, "雪至夕霜@草榴社区@最新地址.mht": 472}
创建时间: 2019-02-14 16:47:41 大小:1.55 GB 文件数量:8 热度:79 最近下载:2025-08-04 23:04:02
    {"Patch.zip": 1271828, "YouTubeDownloader.exe": 586283, "Visit SnowFiles.com.url": 110, "Visit CracksMind.com.url": 113, "Downloaded from CracksMind.Com.txt": 2178, "Visit TutsGalaxy.com for tutorials & free courses.url": 113}
创建时间: 2019-02-14 16:51:01 大小:1.77 MB 文件数量:6 热度:5 最近下载:2025-07-26 21:13:01
    ... - Slag Angels on Wheels Ep 3 (25.12.2018) rq.mp4": 674230922 ...
创建时间: 2019-02-14 18:19:04 大小:643.29 MB 文件数量:8 热度:78 最近下载:2025-07-12 23:20:02
    {"Torrent downloaded from Digtorrent.org.txt": 68, "Avast Premier 2018 18.3.2333 + License Keys till 25.01.2024.exe": 14185372, "Avast Premier 2018 18.3.2333 + License Keys till 25.01.2024.nfo": 344}
创建时间: 2019-02-14 18:31:56 大小:13.53 MB 文件数量:3 热度:15 最近下载:2025-05-18 11:04:01
    {"Patch.zip": 1271830, "YouTubeDownloader.exe": 31268955, "Visit SnowFiles.com.url": 110, "Visit CracksMind.com.url": 113, "Downloaded from CracksMind.Com.txt": 2178, "Visit TutsGalaxy.com for tutorials & free courses.url": 113}
创建时间: 2019-02-14 18:39:31 大小:31.04 MB 文件数量:6 热度:4 最近下载:2025-04-16 13:56:02
    {"ORPALIS PDF Reducer Professional 3.0.25 Crack [LL].exe.exe": 18471260}
创建时间: 2019-02-14 18:43:16 大小:17.62 MB 文件数量:1 热度:3 最近下载:2022-11-12 09:31:46
    {"Install.Notes.url": 836, "www.FENOPY.se.jpg": 95712, "Adobe Acrobat Pro DC 2018.0.3.25.20092 + Crack.exe": 334474398, "Adobe Acrobat Pro DC 2018.0.3.25.20092 + Crack.nfo": 280, "Torrent downloaded from TorReviver torrents at BTS.to.txt": 72}
创建时间: 2019-02-14 19:24:01 大小:319.07 MB 文件数量:5 热度:3 最近下载:2025-03-17 18:44:01
    {"Readme!.inf": 1316, "Torrent downloaded from Kickass.to.txt": 36, "Adobe Illustrator CC 2019 25 2 3 (x86) + Crack.exe": 5344610}
创建时间: 2019-02-14 21:31:33 大小:5.1 MB 文件数量:3 热度:6 最近下载:2025-08-04 00:23:06
    {"Readme!.inf": 1316, "Torrent downloaded from Kickass.to.txt": 36, "Adobe Illustrator CC 2019 25 2 3 (x86) + Crack.exe": 5344610}
创建时间: 2019-02-14 21:52:22 大小:5.1 MB 文件数量:3 热度:5 最近下载:2025-08-03 21:39:07
    {"_ReadMe!.nfo": 741, "_ReadMe!.txt": 919, "Yellow Pages Spider.exe": 6876220, "Yellow Pages Spider Portable": {"languages": {"en.dat": 4846, "es.dat": 5386, "fr.dat": 5588, "it.dat": 5028}, "Updater.exe": 9003124, "openssl.exe": 489472, "libeay32.dll": ...
创建时间: 2019-02-14 21:59:32 大小:23.18 MB 文件数量:13 热度:8 最近下载:2025-08-01 09:35:08
    {"crack": {"run_20dd5.exe": 133198}, "Torrent downloaded from H33t.to.txt": 60, "IDimager Photo Supreme v3.3.0.25.exe": 11507792}
创建时间: 2019-02-14 23:25:33 大小:11.1 MB 文件数量:3 热度:3 最近下载:2022-11-15 19:43:31